This is the latest recevied weather packets stored in our database for station/object DO7ZT-10. If no packets are shown the sender has not sent any weather packets the latest 10 day(s).
| Time | Temp. | Humidity | Pressure | Rain* | Wind** | Luminosity | Snow |
|---|---|---|---|---|---|---|---|
| 1787643984 | 16.67° C | 60% | 1018.4 hPa | - | - | - | - |
| 1787643084 | 16.67° C | 63% | 1018.5 hPa | - | - | - | - |
| 1787642184 | 16.11° C | 65% | 1018.5 hPa | - | - | - | - |
| 1787641284 | 15.56° C | 67% | 1018.5 hPa | - | - | - | - |
| 1787640384 | 14.44° C | 71% | 1018.5 hPa | - | - | - | - |
| 1787639484 | 14.44° C | 70% | 1018.4 hPa | - | - | - | - |
| 1787638583 | 13.89° C | 71% | 1018.4 hPa | - | - | - | - |
| 1787637683 | 13.33° C | 72% | 1018.6 hPa | - | - | - | - |
| 1787636783 | 13.33° C | 72% | 1018.4 hPa | - | - | - | - |
| 1787635883 | 12.78° C | 73% | 1018.5 hPa | - | - | - | - |
| 1787634983 | 12.78° C | 73% | 1018.6 hPa | - | - | - | - |
| 1787634083 | 13.33° C | 71% | 1018.5 hPa | - | - | - | - |
| 1787633183 | 13.33° C | 71% | 1018.5 hPa | - | - | - | - |
| 1787632283 | 13.89° C | 70% | 1018.4 hPa | - | - | - | - |
| 1787631383 | 13.89° C | 70% | 1018.5 hPa | - | - | - | - |
| 1787630483 | 13.33° C | 71% | 1018.4 hPa | - | - | - | - |
| 1787629583 | 13.33° C | 72% | 1018.9 hPa | - | - | - | - |
| 1787628683 | 13.33° C | 71% | 1018.9 hPa | - | - | - | - |
| 1787627783 | 13.33° C | 71% | 1018.8 hPa | - | - | - | - |
| 1787626883 | 13.33° C | 71% | 1018.9 hPa | - | - | - | - |
| 1787625982 | 13.33° C | 71% | 1018.8 hPa | - | - | - | - |
| 1787625082 | 13.33° C | 70% | 1018.9 hPa | - | - | - | - |
| 1787624182 | 13.89° C | 69% | 1019.2 hPa | - | - | - | - |
| 1787623282 | 13.89° C | 69% | 1019.2 hPa | - | - | - | - |
| 1787622382 | 13.89° C | 69% | 1019.1 hPa | - | - | - | - |
* Rain since midnight (hover to see other rain measurements)
** Current wind speed in m/s (hover to see current wind gust speed)